Time;durP1;ratioP1;P1;durP2;ratioP2;P2;SDS_P1;SDS_P2;PMS_P1;PMS_P2;Temp;Humidity;BMP_temperature;BMP_pressure;BME280_temperature;BME280_humidity;BME280_pressure;Samples;Min_cycle;Max_cycle;Signal;HPM_P1;HPM_P2
2024/03/22 00:01:50;;;;;;;6.72;4.97;;;;;;;17.15;60.06;101910.69;10358784;28;20280;-64
2024/03/22 00:06:50;;;;;;;8.27;4.93;;;;;;;17.18;59.80;101909.41;10366822;28;20026;-63
2024/03/22 00:11:50;;;;;;;7.35;5.95;;;;;;;17.17;58.62;101899.75;10367280;28;20085;-64
2024/03/22 00:16:51;;;;;;;6.13;4.72;;;;;;;17.15;58.97;101894.63;10367768;28;20034;-64
2024/03/22 00:21:51;;;;;;;8.23;5.43;;;;;;;17.13;59.52;101883.34;10367180;28;20052;-65
2024/03/22 00:26:51;;;;;;;7.17;5.13;;;;;;;17.17;59.44;101871.06;10366492;28;20277;-64
2024/03/22 00:31:52;;;;;;;7.27;5.00;;;;;;;17.23;58.90;101863.88;10366305;28;20280;-63
2024/03/22 00:36:52;;;;;;;6.22;4.32;;;;;;;17.21;59.11;101841.88;10375301;28;20342;-64
2024/03/22 00:41:52;;;;;;;8.97;6.20;;;;;;;17.18;59.03;101829.00;10374941;28;20041;-64
2024/03/22 00:46:53;;;;;;;7.23;4.73;;;;;;;17.23;59.18;101837.06;10375177;28;20277;-64
2024/03/22 00:51:55;;;;;;;8.27;5.40;;;;;;;17.19;60.09;101827.94;10372443;28;20280;-63
2024/03/22 00:56:55;;;;;;;6.43;4.95;;;;;;;17.21;59.00;101820.44;10371023;28;20764;-63
2024/03/22 01:01:55;;;;;;;6.40;4.87;;;;;;;17.22;60.05;101816.69;10365063;28;20022;-64
2024/03/22 01:06:56;;;;;;;8.97;6.27;;;;;;;17.16;58.99;101807.00;10373063;28;20284;-63
2024/03/22 01:11:56;;;;;;;8.30;5.70;;;;;;;17.15;59.63;101805.38;10373465;28;20350;-64
2024/03/22 01:16:56;;;;;;;6.85;4.97;;;;;;;17.17;59.51;101784.50;10373877;28;20281;-63
2024/03/22 01:21:57;;;;;;;7.10;4.45;;;;;;;17.14;59.34;101790.38;10372019;28;20052;-64
2024/03/22 01:26:57;;;;;;;7.80;5.30;;;;;;;17.11;59.84;101790.88;10372254;28;20452;-63
2024/03/22 01:31:58;;;;;;;6.77;5.00;;;;;;;17.10;59.24;101779.38;10372948;28;20269;-63
2024/03/22 01:36:58;;;;;;;7.70;5.75;;;;;;;17.09;60.04;101783.13;10372967;28;20293;-62
2024/03/22 01:41:58;;;;;;;6.35;5.47;;;;;;;17.16;58.59;101777.50;10371253;28;20030;-64
2024/03/22 01:47:02;;;;;;;8.18;5.78;;;;;;;17.15;59.92;101782.06;10371069;28;20057;-63
2024/03/22 01:52:03;;;;;;;7.00;5.22;;;;;;;17.18;58.75;101780.75;10372205;28;20036;-63
2024/03/22 01:57:03;;;;;;;7.55;5.10;;;;;;;17.23;59.03;101789.63;10348654;28;20041;-63
2024/03/22 02:02:04;;;;;;;7.63;5.75;;;;;;;17.19;59.93;101783.19;10370538;28;20034;-63
2024/03/22 02:07:04;;;;;;;6.78;4.88;;;;;;;17.18;59.48;101770.84;10370806;28;20026;-63
2024/03/22 02:12:05;;;;;;;8.40;5.13;;;;;;;17.14;59.14;101756.34;10371217;28;20054;-63
2024/03/22 02:17:05;;;;;;;7.85;5.32;;;;;;;17.12;59.50;101741.59;10370424;28;20510;-64
2024/03/22 02:22:05;;;;;;;8.13;6.37;;;;;;;17.16;59.07;101734.63;10363821;28;20029;-64
2024/03/22 02:27:05;;;;;;;7.97;5.83;;;;;;;17.14;59.12;101728.72;10349646;28;20358;-63
2024/03/22 02:32:06;;;;;;;8.23;4.95;;;;;;;17.12;59.31;101731.66;10369138;28;20807;-64
2024/03/22 02:37:06;;;;;;;9.65;6.68;;;;;;;17.11;59.91;101724.72;10371032;28;20022;-63
2024/03/22 02:42:07;;;;;;;8.65;5.43;;;;;;;17.10;58.75;101712.38;10370464;28;20028;-64
2024/03/22 02:47:07;;;;;;;7.75;5.72;;;;;;;17.14;59.02;101710.78;10370067;28;20021;-63
2024/03/22 02:52:07;;;;;;;7.47;5.63;;;;;;;17.18;58.45;101700.34;10368926;28;20037;-63
2024/03/22 02:57:08;;;;;;;8.33;4.93;;;;;;;17.15;58.83;101687.47;10369206;28;20347;-63
2024/03/22 03:02:08;;;;;;;7.30;5.30;;;;;;;17.17;58.50;101678.13;10370261;28;20288;-64
2024/03/22 03:07:08;;;;;;;9.70;6.07;;;;;;;17.11;59.38;101687.19;10368179;28;20279;-63
2024/03/22 03:12:09;;;;;;;7.87;5.50;;;;;;;17.13;59.23;101671.66;10368081;28;20768;-64
2024/03/22 03:17:09;;;;;;;8.87;7.43;;;;;;;17.21;58.38;101651.59;10367890;28;20292;-65
2024/03/22 03:22:09;;;;;;;7.60;6.23;;;;;;;17.24;59.20;101634.97;10345473;28;20060;-64
2024/03/22 03:27:10;;;;;;;6.88;5.70;;;;;;;17.20;58.29;101636.56;10364529;28;20318;-64
2024/03/22 03:32:10;;;;;;;8.23;5.53;;;;;;;17.17;58.56;101634.44;10350950;28;20036;-64
2024/03/22 03:37:10;;;;;;;8.27;6.30;;;;;;;17.14;59.56;101629.56;10368407;28;20300;-64
2024/03/22 03:42:11;;;;;;;7.97;6.03;;;;;;;17.20;59.11;101623.97;10368265;28;20282;-64
2024/03/22 03:47:11;;;;;;;7.87;5.77;;;;;;;17.15;58.93;101613.22;10368072;28;20307;-64
2024/03/22 03:52:11;;;;;;;7.83;6.40;;;;;;;17.19;58.67;101611.66;10368386;28;20792;-64
2024/03/22 03:57:12;;;;;;;8.48;6.45;;;;;;;17.14;59.72;101610.81;10367355;28;20285;-65
2024/03/22 04:02:12;;;;;;;8.05;6.53;;;;;;;17.17;59.99;101592.34;10368302;28;20030;-63
2024/03/22 04:07:12;;;;;;;9.00;6.07;;;;;;;17.19;59.14;101587.53;10368122;28;20045;-65
2024/03/22 04:12:13;;;;;;;8.50;5.93;;;;;;;17.22;58.41;101588.88;10376127;28;20304;-64
2024/03/22 04:17:13;;;;;;;9.52;6.78;;;;;;;17.22;58.74;101594.22;10374568;28;20291;-65
2024/03/22 04:22:13;;;;;;;8.07;6.17;;;;;;;17.27;58.43;101594.22;10369852;28;20497;-64
2024/03/22 04:27:14;;;;;;;8.53;6.47;;;;;;;17.22;58.93;101589.69;10374063;28;20269;-65
2024/03/22 04:32:14;;;;;;;7.97;6.88;;;;;;;17.25;58.00;101591.03;10374677;28;20963;-64
2024/03/22 04:37:14;;;;;;;8.17;6.57;;;;;;;17.27;58.89;101583.50;10375230;28;20590;-64
2024/03/22 04:42:15;;;;;;;9.77;7.37;;;;;;;17.27;58.97;101588.06;10373651;28;20280;-65
2024/03/22 04:47:16;;;;;;;8.68;6.95;;;;;;;17.23;59.27;101580.56;10374687;28;20272;-65
2024/03/22 04:52:16;;;;;;;8.90;7.07;;;;;;;17.29;58.69;101580.59;10375017;28;20520;-63
2024/03/22 04:57:16;;;;;;;10.98;7.38;;;;;;;17.26;58.96;101568.50;10368703;28;20296;-64
2024/03/22 05:02:17;;;;;;;11.57;8.00;;;;;;;17.25;58.59;101577.63;10369193;28;20026;-65
2024/03/22 05:07:18;;;;;;;8.90;6.60;;;;;;;17.27;57.68;101580.81;10371990;28;20268;-64
2024/03/22 05:12:18;;;;;;;9.40;7.47;;;;;;;17.27;57.98;101580.81;10372786;28;20129;-64
2024/03/22 05:17:18;;;;;;;10.37;8.07;;;;;;;17.30;58.13;101580.31;10371860;28;20704;-64
2024/03/22 05:22:20;;;;;;;10.33;7.57;;;;;;;17.25;58.51;101562.34;10371547;28;20296;-64
2024/03/22 05:27:20;;;;;;;9.27;7.40;;;;;;;17.23;59.06;101558.31;10368579;28;20265;-64
2024/03/22 05:32:21;;;;;;;9.60;7.18;;;;;;;17.23;58.13;101563.69;10370259;28;20026;-64
2024/03/22 05:37:21;;;;;;;9.07;6.83;;;;;;;17.19;59.05;101568.78;10368780;28;20398;-64
2024/03/22 05:42:21;;;;;;;9.20;6.95;;;;;;;17.17;58.20;101573.59;10371243;28;20296;-64
2024/03/22 05:47:22;;;;;;;8.73;6.07;;;;;;;17.18;58.09;101566.38;10371789;28;20018;-64
2024/03/22 05:52:22;;;;;;;8.98;6.72;;;;;;;17.19;58.92;101565.28;10370296;28;20029;-64
2024/03/22 05:57:22;;;;;;;9.07;7.10;;;;;;;17.19;58.99;101570.66;10380747;28;20505;-64
2024/03/22 06:02:23;;;;;;;9.02;6.55;;;;;;;17.19;58.77;101559.94;10371623;28;20284;-65
2024/03/22 06:07:23;;;;;;;10.20;6.97;;;;;;;17.17;58.75;101546.00;10376292;28;20049;-64
2024/03/22 06:12:23;;;;;;;10.27;7.10;;;;;;;17.15;57.74;101546.22;10371259;28;20129;-65
2024/03/22 06:17:24;;;;;;;11.13;8.20;;;;;;;17.18;58.58;101547.59;10369852;28;20284;-61
2024/03/22 06:22:25;;;;;;;23.23;8.85;;;;;;;17.24;59.03;101539.28;10369462;28;20029;-62
2024/03/22 06:27:25;;;;;;;12.87;7.00;;;;;;;17.33;59.38;101544.94;10370065;28;20028;-61
2024/03/22 06:32:25;;;;;;;9.83;7.43;;;;;;;17.49;58.88;101524.28;10369320;28;20280;-61
2024/03/22 06:37:26;;;;;;;20.47;8.57;;;;;;;17.52;60.07;101521.06;10370414;28;20972;-64
2024/03/22 06:42:26;;;;;;;17.53;7.37;;;;;;;17.54;59.68;101527.00;10361802;28;20276;-62
2024/03/22 06:47:27;;;;;;;18.52;8.10;;;;;;;17.53;60.85;101520.03;10369857;28;20804;-62
2024/03/22 06:52:27;;;;;;;14.77;7.43;;;;;;;17.56;59.83;101527.53;10370445;28;20030;-63
2024/03/22 06:57:28;;;;;;;13.13;7.50;;;;;;;17.47;60.24;101526.44;10367727;28;20296;-62
2024/03/22 07:02:28;;;;;;;14.23;7.60;;;;;;;17.51;60.28;101531.00;10361440;28;20307;-62
2024/03/22 07:07:28;;;;;;;13.50;7.25;;;;;;;17.53;60.30;101534.22;10366771;28;20022;-61
2024/03/22 07:12:29;;;;;;;23.83;8.57;;;;;;;17.39;60.12;101524.28;10367811;28;20093;-61
2024/03/22 07:17:29;;;;;;;23.50;7.50;;;;;;;17.27;59.60;101521.06;10363013;28;20684;-62
2024/03/22 07:22:29;;;;;;;13.98;8.05;;;;;;;17.26;60.41;101520.25;10366671;28;20430;-62
2024/03/22 07:27:32;;;;;;;14.45;7.60;;;;;;;17.24;59.47;101533.13;10349626;28;20046;-62
2024/03/22 07:32:32;;;;;;;10.57;6.97;;;;;;;17.22;59.82;101520.00;10366003;28;20022;-63
2024/03/22 07:37:35;;;;;;;10.45;5.93;;;;;;;17.16;59.63;101522.91;10358194;28;20644;-62
2024/03/22 07:42:35;;;;;;;11.30;7.18;;;;;;;17.19;60.31;101530.44;10345504;28;20053;-60
2024/03/22 07:47:37;;;;;;;9.57;6.27;;;;;;;17.14;59.25;101533.91;10366590;28;20024;-60
2024/03/22 07:52:37;;;;;;;8.52;5.65;;;;;;;17.11;59.94;101530.97;10367050;28;20339;-60
2024/03/22 07:57:38;;;;;;;7.97;5.77;;;;;;;17.10;60.53;101535.53;10365870;28;20364;-60
2024/03/22 08:02:38;;;;;;;7.63;5.67;;;;;;;17.09;59.93;101536.59;10366991;28;20354;-60
2024/03/22 08:07:38;;;;;;;9.93;6.50;;;;;;;17.06;59.29;101528.28;10366423;28;20284;-60
2024/03/22 08:12:39;;;;;;;11.50;6.53;;;;;;;17.05;59.59;101535.53;10364776;28;20295;-60
2024/03/22 08:17:39;;;;;;;8.38;6.10;;;;;;;17.05;59.71;101523.97;10366665;28;20045;-59
2024/03/22 08:22:39;;;;;;;9.93;5.67;;;;;;;17.08;59.14;101526.16;10366571;28;20425;-60
2024/03/22 08:27:39;;;;;;;8.73;6.37;;;;;;;17.06;59.88;101521.06;10365765;28;20268;-58
2024/03/22 08:32:40;;;;;;;8.43;6.07;;;;;;;17.06;59.98;101515.69;10366890;28;20764;-60
2024/03/22 08:37:41;;;;;;;10.65;6.05;;;;;;;17.06;60.20;101520.25;10365307;28;20330;-60
2024/03/22 08:42:42;;;;;;;10.30;5.28;;;;;;;17.06;59.28;101518.38;10380931;28;20398;-59
2024/03/22 08:47:43;;;;;;;9.40;5.93;;;;;;;17.13;59.96;101513.53;10366226;28;20053;-61
2024/03/22 08:52:43;;;;;;;9.95;7.10;;;;;;;17.12;59.05;101516.50;10367649;28;20029;-61
2024/03/22 08:57:44;;;;;;;8.83;6.33;;;;;;;17.17;58.45;101505.81;10369859;28;20034;-61
2024/03/22 09:02:44;;;;;;;8.90;6.10;;;;;;;17.20;59.31;101503.38;10373728;28;20280;-61
2024/03/22 09:07:44;;;;;;;19.23;7.07;;;;;;;17.15;59.84;101516.75;10374014;28;20076;-61
2024/03/22 09:12:44;;;;;;;9.20;6.83;;;;;;;17.17;58.43;101500.44;10372857;28;20787;-61
2024/03/22 09:17:45;;;;;;;10.20;6.88;;;;;;;17.17;58.45;101495.06;10373640;28;20292;-61
2024/03/22 09:22:46;;;;;;;10.13;6.90;;;;;;;17.15;58.71;101513.28;10378092;28;20030;-61
2024/03/22 09:27:46;;;;;;;9.15;6.53;;;;;;;17.14;58.64;101495.59;10395942;28;20265;-60
2024/03/22 09:32:46;;;;;;;9.83;7.30;;;;;;;17.18;59.64;101496.69;10403606;28;20072;-60
2024/03/22 09:37:47;;;;;;;8.95;6.65;;;;;;;17.17;58.23;101489.72;10402208;28;20382;-62
2024/03/22 09:42:48;;;;;;;14.00;7.20;;;;;;;17.19;59.61;101490.25;10401713;28;20033;-61
2024/03/22 09:47:50;;;;;;;10.15;7.78;;;;;;;17.20;57.95;101491.84;10400953;28;20011;-61
2024/03/22 09:52:52;;;;;;;9.60;7.25;;;;;;;17.16;58.44;101488.09;10402258;28;20029;-61
2024/03/22 09:57:53;;;;;;;10.55;8.13;;;;;;;17.13;59.17;101499.34;10400212;28;20033;-61
2024/03/22 10:02:54;;;;;;;8.98;7.00;;;;;;;17.12;59.37;101487.00;10400924;28;20026;-61
2024/03/22 10:07:55;;;;;;;12.55;6.78;;;;;;;17.13;58.50;101488.63;10397838;28;20018;-61
2024/03/22 10:12:55;;;;;;;11.13;8.50;;;;;;;17.13;58.55;101484.06;10370965;28;20050;-60
2024/03/22 10:17:56;;;;;;;10.27;8.15;;;;;;;17.20;58.95;101492.66;10371010;28;20033;-61
2024/03/22 10:22:58;;;;;;;8.98;6.97;;;;;;;17.24;58.83;101487.56;10369634;28;20053;-61
2024/03/22 10:27:59;;;;;;;10.98;7.57;;;;;;;17.24;58.89;101485.69;10369504;28;20033;-61
2024/03/22 10:33:00;;;;;;;10.98;7.30;;;;;;;17.23;58.65;101484.06;10370949;28;20477;-61
2024/03/22 10:38:00;;;;;;;10.00;6.40;;;;;;;17.25;58.37;101483.81;10368432;28;20037;-61
2024/03/22 10:43:02;;;;;;;10.00;7.45;;;;;;;17.20;58.83;101476.59;10368161;28;20018;-61
2024/03/22 10:48:08;;;;;;;9.25;7.57;;;;;;;17.18;58.42;101483.28;10368440;28;20110;-61
2024/03/22 10:53:20;;;;;;;9.73;7.68;;;;;;;17.18;58.27;101475.25;10367177;28;20021;-61
2024/03/22 10:58:24;;;;;;;9.02;6.28;;;;;;;17.21;58.49;101470.16;10368748;28;20092;-61
2024/03/22 11:03:26;;;;;;;9.40;7.10;;;;;;;17.21;59.55;101478.19;10366999;28;20108;-61
2024/03/22 11:08:27;;;;;;;8.88;7.57;;;;;;;17.20;58.57;101473.91;10367294;28;20541;-60
2024/03/22 11:13:28;;;;;;;9.23;6.78;;;;;;;17.15;58.87;101467.72;10366290;28;20053;-61
2024/03/22 11:18:28;;;;;;;8.43;6.67;;;;;;;17.14;59.20;101469.59;10366491;28;20420;-61
2024/03/22 11:23:28;;;;;;;7.30;6.53;;;;;;;17.17;58.76;101461.03;10367491;28;20288;-61
2024/03/22 11:28:29;;;;;;;8.97;6.80;;;;;;;17.16;58.75;101442.53;10364897;28;20283;-61
2024/03/22 11:33:30;;;;;;;7.78;6.97;;;;;;;17.19;58.71;101460.78;10366920;28;20281;-61
2024/03/22 11:38:31;;;;;;;7.15;6.10;;;;;;;17.20;58.58;101435.56;10350774;28;20100;-61
2024/03/22 11:43:32;;;;;;;7.68;6.18;;;;;;;17.22;58.57;101436.91;10365717;28;20061;-61
2024/03/22 11:48:33;;;;;;;7.20;6.45;;;;;;;17.23;58.75;101445.75;10350747;28;20022;-60
2024/03/22 11:53:33;;;;;;;7.22;5.68;;;;;;;17.20;58.34;101443.63;10367561;28;20101;-61
2024/03/22 11:58:33;;;;;;;7.82;6.28;;;;;;;17.17;59.60;101436.94;10356641;28;20173;-61
2024/03/22 12:03:34;;;;;;;6.13;5.10;;;;;;;17.20;59.60;101427.53;10368055;28;20037;-61
2024/03/22 12:08:35;;;;;;;6.32;4.95;;;;;;;17.21;57.78;101432.63;10366517;28;20627;-61
2024/03/22 12:13:35;;;;;;;6.43;5.35;;;;;;;17.19;58.58;101425.94;10367247;28;20589;-61
2024/03/22 12:18:35;;;;;;;7.83;5.43;;;;;;;17.18;59.45;101414.41;10367392;28;20101;-60
2024/03/22 12:23:35;;;;;;;6.60;5.00;;;;;;;17.17;58.74;101406.66;10366113;28;20953;-60
2024/03/22 12:28:36;;;;;;;6.03;4.90;;;;;;;17.12;58.97;101404.75;10369609;28;20383;-61
2024/03/22 12:33:36;;;;;;;7.60;5.40;;;;;;;17.13;59.05;101389.47;10373600;28;20844;-60
2024/03/22 12:38:37;;;;;;;6.55;4.65;;;;;;;17.12;58.20;101388.69;10375565;28;20399;-62
2024/03/22 12:43:37;;;;;;;6.13;4.80;;;;;;;17.07;58.73;101383.34;10362027;28;20397;-62
2024/03/22 12:48:37;;;;;;;5.67;5.17;;;;;;;17.08;58.33;101376.09;10375356;28;20277;-60
2024/03/22 12:53:38;;;;;;;6.30;4.72;;;;;;;17.13;59.18;101366.16;10374713;28;20621;-61
2024/03/22 12:58:38;;;;;;;5.63;4.43;;;;;;;17.13;59.82;101371.53;10374380;28;20597;-60
2024/03/22 13:03:38;;;;;;;6.07;4.20;;;;;;;17.08;58.93;101358.16;10373790;28;20477;-60
2024/03/22 13:08:39;;;;;;;5.97;4.80;;;;;;;17.14;58.59;101354.38;10373805;28;20287;-60
2024/03/22 13:13:39;;;;;;;5.72;4.50;;;;;;;17.12;59.38;101348.47;10372499;28;20644;-60
2024/03/22 13:18:39;;;;;;;8.95;4.45;;;;;;;17.10;59.30;101339.13;10362778;28;20165;-59
2024/03/22 13:23:40;;;;;;;10.75;5.03;;;;;;;17.18;59.80;101339.38;10372057;28;20518;-62
2024/03/22 13:28:43;;;;;;;16.73;6.43;;;;;;;17.27;61.18;101338.81;10371720;28;20497;-62
2024/03/22 13:33:43;;;;;;;17.77;5.90;;;;;;;17.22;60.13;101343.13;10385546;28;20307;-61
2024/03/22 13:38:44;;;;;;;11.10;5.13;;;;;;;17.16;60.18;101338.81;10371019;28;20030;-62
2024/03/22 13:43:44;;;;;;;30.97;6.17;;;;;;;17.25;59.89;101328.34;10371784;28;20620;-64
2024/03/22 13:48:44;;;;;;;19.67;6.40;;;;;;;17.24;59.99;101326.75;10373224;28;20416;-63
2024/03/22 13:53:45;;;;;;;29.30;6.10;;;;;;;17.28;60.61;101332.38;10371206;28;20025;-64
2024/03/22 13:58:45;;;;;;;26.23;6.83;;;;;;;17.33;61.27;101322.44;10361279;28;20022;-60
2024/03/22 14:03:45;;;;;;;18.83;5.53;;;;;;;17.32;60.46;101320.06;10371982;28;20281;-62
2024/03/22 14:08:46;;;;;;;15.70;5.50;;;;;;;17.34;61.29;101321.38;10372387;28;20277;-61
2024/03/22 14:13:46;;;;;;;17.63;5.03;;;;;;;17.36;61.28;101316.53;10371169;28;20292;-61
2024/03/22 14:18:48;;;;;;;13.50;4.90;;;;;;;17.35;61.43;101303.41;10375277;28;20099;-61
2024/03/22 14:23:49;;;;;;;18.95;5.00;;;;;;;17.30;59.92;101288.16;10371003;28;20467;-62
2024/03/22 14:28:50;;;;;;;14.77;5.95;;;;;;;17.34;60.32;101288.41;10370999;28;20088;-61
2024/03/22 14:33:51;;;;;;;21.63;6.82;;;;;;;17.31;60.79;101281.72;10369511;28;20131;-65
2024/03/22 14:38:51;;;;;;;20.33;6.30;;;;;;;17.15;60.19;101282.81;10369860;28;20108;-66
2024/03/22 14:43:51;;;;;;;23.13;6.07;;;;;;;17.12;60.98;101278.00;10370240;28;20026;-63
2024/03/22 14:48:55;;;;;;;23.43;6.27;;;;;;;17.11;60.80;101266.50;10367702;28;20765;-70
2024/03/22 14:53:55;;;;;;;17.58;5.93;;;;;;;17.09;59.98;101268.66;10382363;28;20363;-68
2024/03/22 14:58:57;;;;;;;28.07;8.37;;;;;;;17.02;60.86;101260.06;10359942;28;20112;-66
2024/03/22 15:03:57;;;;;;;53.90;11.13;;;;;;;17.05;61.64;101258.72;10383541;28;20804;-68
2024/03/22 15:08:58;;;;;;;34.33;6.88;;;;;;;17.14;62.08;101257.09;10382272;28;20029;-66
2024/03/22 15:13:59;;;;;;;24.90;9.15;;;;;;;17.05;61.45;101259.56;10366738;28;20046;-65
2024/03/22 15:18:59;;;;;;;28.27;8.95;;;;;;;17.05;60.79;101254.19;10374461;28;20534;-63
2024/03/22 15:23:59;;;;;;;28.75;8.43;;;;;;;17.09;61.36;101238.38;10381984;28;20053;-62
2024/03/22 15:28:59;;;;;;;25.83;8.20;;;;;;;17.08;60.81;101232.22;10382654;28;20056;-63
2024/03/22 15:34:00;;;;;;;24.97;7.03;;;;;;;17.03;60.87;101224.19;10383110;28;20284;-64
2024/03/22 15:39:00;;;;;;;27.90;9.20;;;;;;;17.09;61.79;101222.31;10379215;28;20400;-64
2024/03/22 15:44:00;;;;;;;19.27;6.90;;;;;;;17.10;61.41;101226.59;10383759;28;20343;-66
2024/03/22 15:49:01;;;;;;;20.17;6.45;;;;;;;17.14;63.04;101219.59;10370799;28;20289;-66
2024/03/22 15:54:01;;;;;;;15.07;5.63;;;;;;;17.24;62.73;101211.53;10368010;28;20057;-66
2024/03/22 15:59:02;;;;;;;15.85;5.30;;;;;;;17.23;62.38;101202.69;10375250;28;20292;-65
2024/03/22 16:04:02;;;;;;;20.05;6.72;;;;;;;17.36;62.74;101213.88;10385704;28;20428;-61
2024/03/22 16:09:02;;;;;;;17.52;5.43;;;;;;;17.40;62.73;101210.38;10380361;28;20026;-66
2024/03/22 16:14:03;;;;;;;15.13;5.20;;;;;;;17.29;62.36;101203.47;10371157;28;20566;-63
2024/03/22 16:19:03;;;;;;;23.75;5.88;;;;;;;17.26;61.69;101195.97;10341689;28;20034;-64
2024/03/22 16:24:04;;;;;;;38.22;8.40;;;;;;;17.15;62.67;101205.91;10361480;28;20029;-64
2024/03/22 16:29:04;;;;;;;53.30;9.07;;;;;;;17.36;61.52;101203.97;10380302;28;20092;-61
2024/03/22 16:34:05;;;;;;;32.30;6.07;;;;;;;17.36;62.92;101214.69;10366954;28;20028;-57
2024/03/22 16:39:05;;;;;;;38.30;7.70;;;;;;;17.40;62.36;101210.38;10365703;28;20294;-59
2024/03/22 16:44:05;;;;;;;21.80;6.43;;;;;;;17.42;63.01;101218.16;10363768;28;20270;-59
2024/03/22 16:49:05;;;;;;;28.90;7.70;;;;;;;17.45;62.99;101220.28;10366730;28;20264;-59
2024/03/22 16:54:09;;;;;;;23.40;6.17;;;;;;;17.42;61.86;101218.97;10366404;28;20787;-63
2024/03/22 16:59:10;;;;;;;16.30;6.07;;;;;;;17.45;62.04;101222.97;10361169;28;20319;-64
2024/03/22 17:04:10;;;;;;;29.70;6.53;;;;;;;17.50;62.52;101206.84;10368096;28;20064;-60
2024/03/22 17:09:10;;;;;;;21.57;6.57;;;;;;;17.46;62.93;101203.13;10374829;28;20075;-60
2024/03/22 17:14:11;;;;;;;31.77;5.27;;;;;;;17.43;61.91;101191.06;10367900;28;20312;-59
2024/03/22 17:19:12;;;;;;;16.98;4.60;;;;;;;17.45;62.06;101196.16;10368780;28;20293;-61
2024/03/22 17:24:12;;;;;;;21.00;5.67;;;;;;;17.41;63.17;101193.22;10371938;28;20397;-63
2024/03/22 17:29:12;;;;;;;13.63;5.07;;;;;;;17.42;61.12;101186.00;10354296;28;20285;-61
2024/03/22 17:34:13;;;;;;;16.60;5.83;;;;;;;17.45;63.13;101180.06;10375760;28;20284;-62
2024/03/22 17:39:14;;;;;;;21.50;5.30;;;;;;;17.40;61.69;101186.25;10371548;28;20768;-61
2024/03/22 17:44:14;;;;;;;14.85;4.90;;;;;;;17.34;62.26;101183.88;10371008;28;20040;-61
2024/03/22 17:49:14;;;;;;;20.33;6.17;;;;;;;17.27;62.65;101191.41;10371495;28;20026;-60
2024/03/22 17:54:15;;;;;;;31.30;5.53;;;;;;;17.12;63.89;101179.69;10370827;28;20276;-61
2024/03/22 17:59:15;;;;;;;22.23;5.90;;;;;;;17.10;63.82;101175.66;10365021;28;20375;-61
2024/03/22 18:04:15;;;;;;;19.50;5.60;;;;;;;17.06;63.64;101170.06;10352365;28;20023;-60
2024/03/22 18:09:16;;;;;;;28.10;5.70;;;;;;;17.02;63.72;101169.00;10381667;28;20025;-60
2024/03/22 18:14:18;;;;;;;20.27;5.97;;;;;;;17.00;63.24;101176.50;10350916;28;20305;-60
2024/03/22 18:19:19;;;;;;;21.65;5.38;;;;;;;16.97;62.43;101163.66;10359536;28;20289;-59
2024/03/22 18:24:20;;;;;;;12.98;4.50;;;;;;;16.95;62.60;101165.81;10368083;28;20029;-60
2024/03/22 18:29:21;;;;;;;16.52;4.50;;;;;;;16.93;63.52;101167.97;10350539;28;20536;-59
2024/03/22 18:34:21;;;;;;;25.92;6.28;;;;;;;16.99;63.61;101177.59;10376601;28;20133;-60
2024/03/22 18:39:21;;;;;;;20.37;4.60;;;;;;;16.98;62.69;101167.16;10357895;28;20021;-60
2024/03/22 18:44:22;;;;;;;16.07;5.20;;;;;;;17.00;62.49;101162.31;10366594;28;20644;-60
2024/03/22 18:49:22;;;;;;;18.40;5.03;;;;;;;17.03;62.85;101159.06;10366826;28;20280;-58
2024/03/22 18:54:22;;;;;;;14.43;4.87;;;;;;;17.01;62.27;101137.13;10369475;28;20273;-58
2024/03/22 18:59:25;;;;;;;24.53;5.80;;;;;;;17.01;62.14;101158.56;10368812;28;20517;-59
2024/03/22 19:04:25;;;;;;;12.73;4.03;;;;;;;17.02;61.46;101162.84;10367896;28;20276;-57
2024/03/22 19:09:25;;;;;;;9.65;4.05;;;;;;;16.99;61.71;101155.34;10365326;28;20029;-57
2024/03/22 19:14:26;;;;;;;13.00;4.73;;;;;;;16.96;61.93;101143.31;10365348;28;20052;-58
2024/03/22 19:19:26;;;;;;;11.03;4.37;;;;;;;16.98;61.02;101148.41;10366175;28;20374;-58
2024/03/22 19:24:28;;;;;;;10.27;4.07;;;;;;;16.98;61.31;101135.81;10366252;28;20281;-57
2024/03/22 19:29:28;;;;;;;11.70;4.63;;;;;;;17.12;61.30;101127.97;10365754;28;20057;-59
2024/03/22 19:34:29;;;;;;;11.27;4.70;;;;;;;17.16;62.11;101127.13;10365905;28;20101;-57
2024/03/22 19:39:30;;;;;;;11.15;5.70;;;;;;;17.17;60.98;101123.41;10364229;28;20025;-60
2024/03/22 19:44:31;;;;;;;11.95;3.95;;;;;;;17.17;61.85;101118.03;10364226;28;20025;-58
2024/03/22 19:49:31;;;;;;;10.93;4.95;;;;;;;17.18;62.26;101116.97;10364959;28;20454;-56
2024/03/22 19:54:32;;;;;;;10.20;3.80;;;;;;;17.20;62.15;101112.13;10365417;28;20087;-58
2024/03/22 19:59:32;;;;;;;10.60;3.97;;;;;;;17.23;61.07;101110.75;10364623;28;20117;-56
2024/03/22 20:04:32;;;;;;;9.13;3.90;;;;;;;17.23;61.84;101108.09;10365119;28;20025;-56
2024/03/22 20:09:33;;;;;;;10.13;3.80;;;;;;;17.23;61.13;101108.88;10364959;28;20708;-59
2024/03/22 20:14:33;;;;;;;13.25;3.60;;;;;;;17.27;60.94;101113.69;10364712;28;20357;-61
2024/03/22 20:19:33;;;;;;;7.27;3.40;;;;;;;17.25;61.21;101098.69;10364789;28;20053;-58
2024/03/22 20:24:34;;;;;;;9.13;4.40;;;;;;;17.24;61.39;101099.75;10364825;28;20399;-58
2024/03/22 20:29:34;;;;;;;11.43;3.60;;;;;;;17.24;61.57;101105.13;10364303;28;20744;-61
2024/03/22 20:34:34;;;;;;;8.27;4.37;;;;;;;17.23;61.52;101094.69;10363225;28;20289;-62
2024/03/22 20:39:37;;;;;;;9.80;3.72;;;;;;;17.22;60.68;101085.84;10363317;28;20783;-62
2024/03/22 20:44:38;;;;;;;8.13;3.90;;;;;;;17.24;62.24;101082.88;10364763;28;20057;-61
2024/03/22 20:49:40;;;;;;;9.85;3.42;;;;;;;17.28;61.80;101081.25;10366255;28;20028;-59
2024/03/22 20:54:41;;;;;;;5.43;2.70;;;;;;;17.34;61.00;101068.63;10371878;28;20121;-59
2024/03/22 20:59:43;;;;;;;5.30;3.40;;;;;;;17.35;60.75;101068.34;10371813;28;20030;-57
2024/03/22 21:04:45;;;;;;;8.70;3.35;;;;;;;17.25;61.87;101068.41;10370446;28;20053;-62
2024/03/22 21:09:46;;;;;;;10.70;3.53;;;;;;;17.31;60.99;101039.72;10370395;28;20087;-57
2024/03/22 21:14:49;;;;;;;6.07;3.38;;;;;;;17.29;60.95;101033.84;10371711;28;20054;-60
2024/03/22 21:19:51;;;;;;;10.05;3.55;;;;;;;17.21;61.07;101045.94;10372464;28;20030;-61
2024/03/22 21:24:52;;;;;;;8.27;3.70;;;;;;;17.20;61.20;101030.94;10372919;28;20072;-60
2024/03/22 21:29:54;;;;;;;7.97;3.22;;;;;;;17.15;60.21;101039.00;10373365;28;20049;-60
2024/03/22 21:34:55;;;;;;;6.95;3.40;;;;;;;17.16;59.98;101032.53;10400819;28;20493;-60
2024/03/22 21:39:57;;;;;;;7.10;3.38;;;;;;;17.17;59.81;101037.66;10372362;28;20018;-60
2024/03/22 21:44:58;;;;;;;5.90;3.33;;;;;;;17.15;60.59;101030.94;10372461;28;20108;-61
2024/03/22 21:49:59;;;;;;;7.65;3.25;;;;;;;17.18;60.86;101025.06;10369590;28;20026;-60
2024/03/22 21:55:01;;;;;;;7.45;3.25;;;;;;;17.23;60.20;101020.44;10375180;28;20117;-61
2024/03/22 22:00:06;;;;;;;5.82;3.13;;;;;;;17.25;59.24;101007.56;10366889;28;20486;-60
2024/03/22 22:05:08;;;;;;;8.77;3.38;;;;;;;17.24;59.02;101005.97;10362737;28;20473;-60
2024/03/22 22:10:10;;;;;;;5.35;3.20;;;;;;;17.25;60.45;101002.22;10368106;28;20109;-61
2024/03/22 22:15:11;;;;;;;6.07;3.05;;;;;;;17.28;59.40;101002.72;10356514;28;20081;-60
2024/03/22 22:20:12;;;;;;;7.97;4.50;;;;;;;17.34;58.84;101009.66;10371855;28;20105;-59
2024/03/22 22:25:15;;;;;;;5.63;3.17;;;;;;;17.32;58.72;101007.25;10368743;28;20112;-60
2024/03/22 22:30:16;;;;;;;7.07;3.45;;;;;;;17.35;59.17;100995.97;10367742;28;20444;-60
2024/03/22 22:35:17;;;;;;;6.22;3.20;;;;;;;17.37;58.05;100987.66;10367970;28;20543;-60
2024/03/22 22:40:19;;;;;;;5.55;3.10;;;;;;;17.37;58.48;100975.03;10367817;28;20446;-60
2024/03/22 22:45:20;;;;;;;8.57;3.50;;;;;;;17.34;58.42;100970.25;10367694;28;20038;-60
2024/03/22 22:50:22;;;;;;;8.55;3.00;;;;;;;17.31;59.88;100953.94;10358032;28;20099;-61
2024/03/22 22:55:23;;;;;;;4.68;2.63;;;;;;;17.29;59.41;100943.50;10365321;28;20049;-61